createdAt,value
2016-09-24T00:00:10.909Z,0
2016-09-24T00:00:43.313Z,0
2016-09-24T00:01:15.634Z,0
2016-09-24T00:01:47.973Z,0
2016-09-24T00:02:20.300Z,0
2016-09-24T00:02:52.603Z,0
2016-09-24T00:03:24.931Z,0
2016-09-24T00:03:57.258Z,0
2016-09-24T00:04:29.568Z,0
2016-09-24T00:05:01.900Z,0
2016-09-24T00:05:34.231Z,0
2016-09-24T00:06:06.609Z,0
2016-09-24T00:06:38.940Z,0
2016-09-24T00:07:11.265Z,0
2016-09-24T00:07:43.593Z,0
2016-09-24T00:08:15.921Z,0
2016-09-24T00:08:48.243Z,0
2016-09-24T00:09:20.574Z,0
2016-09-24T00:09:52.886Z,0
2016-09-24T00:10:25.224Z,0
2016-09-24T00:10:57.555Z,0
2016-09-24T00:11:29.891Z,0
2016-09-24T00:12:02.213Z,0
2016-09-24T00:12:34.537Z,0
2016-09-24T00:13:06.850Z,0
2016-09-24T00:13:39.165Z,0
2016-09-24T00:14:11.497Z,0
2016-09-24T00:14:43.826Z,0
2016-09-24T00:15:16.164Z,0
2016-09-24T00:15:48.499Z,0
2016-09-24T00:16:20.813Z,0
2016-09-24T00:16:53.143Z,0
2016-09-24T00:17:25.475Z,0
2016-09-24T00:17:57.803Z,0
2016-09-24T00:18:30.135Z,0
2016-09-24T00:19:02.455Z,0
2016-09-24T00:19:34.765Z,0
2016-09-24T00:20:07.086Z,0
2016-09-24T00:20:39.423Z,0
2016-09-24T00:21:11.753Z,0
2016-09-24T00:21:44.084Z,0
2016-09-24T00:22:16.413Z,0
2016-09-24T00:22:48.734Z,0
2016-09-24T00:23:21.049Z,0
2016-09-24T00:23:53.378Z,0
2016-09-24T00:24:25.689Z,0
2016-09-24T00:24:58.012Z,0
2016-09-24T00:25:30.332Z,0
2016-09-24T00:26:02.676Z,0
2016-09-24T00:26:34.992Z,0
2016-09-24T00:27:07.325Z,0
2016-09-24T00:27:39.649Z,0
2016-09-24T00:28:11.986Z,0
2016-09-24T00:28:44.298Z,0
2016-09-24T00:29:16.626Z,0
2016-09-24T00:29:48.943Z,0
2016-09-24T00:30:21.279Z,0
2016-09-24T00:30:53.603Z,0
2016-09-24T00:31:25.926Z,0
2016-09-24T00:31:58.252Z,0
2016-09-24T00:32:31.256Z,0
2016-09-24T00:33:03.595Z,0
2016-09-24T00:33:35.920Z,0
2016-09-24T00:34:08.254Z,0
2016-09-24T00:34:40.586Z,0
2016-09-24T00:35:12.904Z,0
2016-09-24T00:35:45.223Z,0
2016-09-24T00:36:17.535Z,0
2016-09-24T00:36:49.861Z,0
2016-09-24T00:37:22.184Z,0
2016-09-24T00:37:54.511Z,0
2016-09-24T00:38:26.844Z,0
2016-09-24T00:38:59.159Z,0
2016-09-24T00:39:31.485Z,0
2016-09-24T00:40:03.821Z,0
2016-09-24T00:40:36.141Z,0
2016-09-24T00:41:08.452Z,0
2016-09-24T00:41:40.768Z,0
2016-09-24T00:42:13.094Z,0
2016-09-24T00:42:45.419Z,0
2016-09-24T00:43:17.747Z,0
2016-09-24T00:43:50.067Z,0
2016-09-24T00:44:22.399Z,0
2016-09-24T00:44:54.720Z,0
2016-09-24T00:45:27.043Z,0
2016-09-24T00:45:59.372Z,0
2016-09-24T00:46:31.693Z,0
2016-09-24T00:47:04.013Z,0
2016-09-24T00:47:36.327Z,0
2016-09-24T00:48:08.649Z,0
2016-09-24T00:48:40.980Z,0
2016-09-24T00:49:13.305Z,0
2016-09-24T00:49:45.641Z,0
2016-09-24T00:50:17.949Z,0
2016-09-24T00:50:50.267Z,0
2016-09-24T00:51:22.600Z,0
2016-09-24T00:51:54.926Z,0
2016-09-24T00:52:27.253Z,0
2016-09-24T00:52:59.572Z,0
2016-09-24T00:53:31.908Z,0
2016-09-24T00:54:04.240Z,0
2016-09-24T00:54:36.582Z,0
2016-09-24T00:55:08.913Z,0
2016-09-24T00:55:41.227Z,0
2016-09-24T00:56:13.541Z,0
2016-09-24T00:56:45.874Z,0
2016-09-24T00:57:18.208Z,0
2016-09-24T00:57:50.527Z,0
2016-09-24T00:58:22.861Z,0
2016-09-24T00:58:55.184Z,0
2016-09-24T00:59:27.517Z,0
2016-09-24T00:59:59.843Z,0
2016-09-24T01:00:32.173Z,0
2016-09-24T01:01:04.517Z,0
2016-09-24T01:01:36.842Z,0
2016-09-24T01:02:09.164Z,0
2016-09-24T01:02:41.492Z,0
2016-09-24T01:03:13.821Z,0
2016-09-24T01:03:46.140Z,0
2016-09-24T01:04:18.462Z,0
2016-09-24T01:04:50.788Z,0
2016-09-24T01:05:23.122Z,0
2016-09-24T01:05:55.456Z,0
2016-09-24T01:06:27.784Z,0
2016-09-24T01:07:00.117Z,0
2016-09-24T01:07:32.434Z,0
2016-09-24T01:08:04.767Z,0
2016-09-24T01:08:37.084Z,0
2016-09-24T01:09:09.426Z,0
2016-09-24T01:09:41.741Z,0
2016-09-24T01:10:14.058Z,0
2016-09-24T01:10:46.380Z,0
2016-09-24T01:11:18.688Z,0
2016-09-24T01:11:51.012Z,0
2016-09-24T01:12:23.331Z,0
2016-09-24T01:12:55.673Z,0
2016-09-24T01:13:28.003Z,0
2016-09-24T01:14:00.335Z,0
2016-09-24T01:14:32.679Z,0
2016-09-24T01:15:05.011Z,0
2016-09-24T01:15:37.343Z,0
2016-09-24T01:16:09.672Z,0
2016-09-24T01:16:41.998Z,0
2016-09-24T01:17:14.318Z,0
2016-09-24T01:17:46.646Z,0
2016-09-24T01:18:18.975Z,0
2016-09-24T01:18:51.301Z,0
2016-09-24T01:19:23.628Z,0
2016-09-24T01:19:55.966Z,0
2016-09-24T01:20:28.286Z,0
2016-09-24T01:21:00.597Z,0
2016-09-24T01:21:32.933Z,0
2016-09-24T01:22:05.250Z,0
2016-09-24T01:22:37.582Z,0
2016-09-24T01:23:09.927Z,0
2016-09-24T01:23:42.241Z,0
2016-09-24T01:24:14.565Z,0
2016-09-24T01:24:46.888Z,0
2016-09-24T01:25:19.231Z,0
2016-09-24T01:25:51.551Z,0
2016-09-24T01:26:23.883Z,0
2016-09-24T01:26:56.216Z,0
2016-09-24T01:27:28.542Z,0
2016-09-24T01:28:00.871Z,0
2016-09-24T01:28:33.193Z,0
2016-09-24T01:29:05.526Z,0
2016-09-24T01:29:37.841Z,0
2016-09-24T01:30:10.169Z,0
2016-09-24T01:30:42.495Z,0
2016-09-24T01:31:14.812Z,0
2016-09-24T01:31:47.142Z,0
2016-09-24T01:32:19.478Z,0
2016-09-24T01:32:51.803Z,0
2016-09-24T01:33:24.139Z,0
2016-09-24T01:33:56.460Z,0
2016-09-24T01:34:28.781Z,0
2016-09-24T01:35:01.090Z,0
2016-09-24T01:35:33.417Z,0
2016-09-24T01:36:05.743Z,0
2016-09-24T01:36:38.071Z,0
2016-09-24T01:37:10.428Z,0
2016-09-24T01:37:42.746Z,0
2016-09-24T01:38:15.091Z,0
2016-09-24T01:38:47.417Z,0
2016-09-24T01:39:19.755Z,0
2016-09-24T01:39:52.084Z,0
2016-09-24T01:40:24.410Z,0
2016-09-24T01:40:56.731Z,0
2016-09-24T01:41:29.041Z,0
2016-09-24T01:42:01.368Z,0
2016-09-24T01:42:33.696Z,0
2016-09-24T01:43:06.167Z,0
2016-09-24T01:43:38.503Z,0
2016-09-24T01:44:10.835Z,0
2016-09-24T01:44:43.166Z,0
2016-09-24T01:45:15.496Z,0
2016-09-24T01:45:47.834Z,0
2016-09-24T01:46:20.171Z,0
2016-09-24T01:46:52.498Z,0
2016-09-24T01:47:24.826Z,0
2016-09-24T01:47:57.140Z,0
2016-09-24T01:48:29.473Z,0
2016-09-24T01:49:01.790Z,0
2016-09-24T01:49:34.121Z,0
2016-09-24T01:50:06.467Z,0
2016-09-24T01:50:38.804Z,0
2016-09-24T01:51:11.130Z,0
2016-09-24T01:51:43.459Z,0
2016-09-24T01:52:15.803Z,0
2016-09-24T01:52:48.117Z,0
2016-09-24T01:53:20.430Z,0
2016-09-24T01:53:52.743Z,0
2016-09-24T01:54:25.065Z,0
2016-09-24T01:54:57.392Z,0
2016-09-24T01:55:29.694Z,0
2016-09-24T01:56:02.020Z,0
2016-09-24T01:56:34.341Z,0
2016-09-24T01:57:06.666Z,0
2016-09-24T01:57:38.997Z,0
2016-09-24T01:58:11.319Z,0
2016-09-24T01:58:43.658Z,0
2016-09-24T01:59:15.989Z,0
2016-09-24T01:59:48.315Z,0
2016-09-24T02:00:20.636Z,0
2016-09-24T02:00:52.954Z,0
2016-09-24T02:01:25.279Z,0
2016-09-24T02:01:57.603Z,0
2016-09-24T02:02:29.942Z,0
2016-09-24T02:03:02.277Z,0
2016-09-24T02:03:34.608Z,0
2016-09-24T02:04:06.932Z,0
2016-09-24T02:04:39.250Z,0
2016-09-24T02:05:11.562Z,0
2016-09-24T02:05:43.868Z,0
2016-09-24T02:06:16.178Z,0
2016-09-24T02:06:48.511Z,0
2016-09-24T02:07:20.840Z,0
2016-09-24T02:07:53.171Z,0
2016-09-24T02:08:25.501Z,0
2016-09-24T02:08:57.833Z,0
2016-09-24T02:09:30.164Z,0
2016-09-24T02:10:02.490Z,0
2016-09-24T02:10:34.792Z,0
2016-09-24T02:11:07.121Z,0
2016-09-24T02:11:39.449Z,0
2016-09-24T02:12:11.783Z,0
2016-09-24T02:12:44.090Z,0
2016-09-24T02:13:16.422Z,0
2016-09-24T02:13:48.754Z,0
2016-09-24T02:14:21.076Z,0
2016-09-24T02:14:53.400Z,0
2016-09-24T02:15:25.721Z,0
2016-09-24T02:15:58.061Z,0
2016-09-24T02:16:30.385Z,0
2016-09-24T02:17:02.703Z,0
2016-09-24T02:17:35.041Z,0
2016-09-24T02:18:07.353Z,0
2016-09-24T02:18:39.666Z,0
2016-09-24T02:19:11.979Z,0
2016-09-24T02:19:44.301Z,0
2016-09-24T02:20:16.621Z,0
2016-09-24T02:20:48.944Z,0
2016-09-24T02:21:21.251Z,0
2016-09-24T02:21:53.578Z,0
2016-09-24T02:22:25.923Z,0
2016-09-24T02:22:58.259Z,0
2016-09-24T02:23:30.579Z,0
2016-09-24T02:24:02.912Z,0
2016-09-24T02:24:35.228Z,0
2016-09-24T02:25:07.563Z,0
2016-09-24T02:25:39.896Z,0
2016-09-24T02:26:12.218Z,0
2016-09-24T02:26:44.551Z,0
2016-09-24T02:27:16.884Z,0
2016-09-24T02:27:49.209Z,0
2016-09-24T02:28:21.536Z,0
2016-09-24T02:28:53.871Z,0
2016-09-24T02:29:26.201Z,0
2016-09-24T02:29:58.523Z,0
2016-09-24T02:30:30.849Z,0
2016-09-24T02:31:03.182Z,0
2016-09-24T02:31:35.506Z,0
2016-09-24T02:32:07.834Z,0
2016-09-24T02:32:40.157Z,0
2016-09-24T02:33:12.482Z,0
2016-09-24T02:33:44.797Z,0
2016-09-24T02:34:17.105Z,0
2016-09-24T02:34:49.432Z,0
2016-09-24T02:35:21.745Z,0
2016-09-24T02:35:54.078Z,0
2016-09-24T02:36:26.398Z,0
2016-09-24T02:36:58.724Z,0
2016-09-24T02:37:31.051Z,0
2016-09-24T02:38:03.375Z,0
2016-09-24T02:38:35.727Z,0
2016-09-24T02:39:08.056Z,0
2016-09-24T02:39:40.382Z,0
2016-09-24T02:40:12.691Z,0
2016-09-24T02:40:45.018Z,0
2016-09-24T02:41:17.342Z,0
2016-09-24T02:41:49.658Z,0
2016-09-24T02:42:21.976Z,0
2016-09-24T02:42:54.306Z,0
2016-09-24T02:43:26.641Z,0
2016-09-24T02:43:58.968Z,0
2016-09-24T02:44:31.294Z,0
2016-09-24T02:45:03.611Z,0
2016-09-24T02:45:35.930Z,0
2016-09-24T02:46:08.254Z,0
2016-09-24T02:46:40.586Z,0
2016-09-24T02:47:12.903Z,0
2016-09-24T02:47:45.204Z,0
2016-09-24T02:48:17.539Z,0
2016-09-24T02:48:49.863Z,0
2016-09-24T02:49:22.202Z,0
2016-09-24T02:49:54.531Z,0
2016-09-24T02:50:26.855Z,0
2016-09-24T02:50:59.196Z,0
2016-09-24T02:51:31.528Z,0
2016-09-24T02:52:03.859Z,0
2016-09-24T02:52:36.181Z,0
2016-09-24T02:53:08.517Z,0
2016-09-24T02:53:40.831Z,0
2016-09-24T02:54:13.147Z,0
2016-09-24T02:54:45.468Z,0
2016-09-24T02:55:17.795Z,0
2016-09-24T02:55:50.135Z,0
2016-09-24T02:56:22.470Z,0
2016-09-24T02:56:54.797Z,0
2016-09-24T02:57:27.124Z,0
2016-09-24T02:57:59.447Z,0
2016-09-24T02:58:31.777Z,0
2016-09-24T02:59:04.090Z,0
2016-09-24T02:59:36.407Z,0
2016-09-24T03:00:08.725Z,0
2016-09-24T03:00:41.057Z,0
2016-09-24T03:01:13.364Z,0
2016-09-24T03:01:45.701Z,0
2016-09-24T03:02:18.037Z,0
2016-09-24T03:02:50.368Z,0
2016-09-24T03:03:22.699Z,0
2016-09-24T03:03:55.010Z,0
2016-09-24T03:04:27.326Z,0
2016-09-24T03:04:59.651Z,0
2016-09-24T03:05:31.987Z,0
2016-09-24T03:06:04.309Z,0
2016-09-24T03:06:36.651Z,0
2016-09-24T03:07:08.988Z,0
2016-09-24T03:07:41.304Z,0
2016-09-24T03:08:13.637Z,0
2016-09-24T03:08:45.959Z,0
2016-09-24T03:09:18.290Z,0
2016-09-24T03:09:50.623Z,0
2016-09-24T03:10:22.939Z,0
2016-09-24T03:10:55.264Z,0
2016-09-24T03:11:27.595Z,0
2016-09-24T03:11:59.929Z,0
2016-09-24T03:12:32.242Z,0
2016-09-24T03:13:04.568Z,0
2016-09-24T03:13:36.904Z,0
2016-09-24T03:14:09.236Z,0
2016-09-24T03:14:41.566Z,0
2016-09-24T03:15:13.884Z,0
2016-09-24T03:15:46.188Z,0
2016-09-24T03:16:18.519Z,0
2016-09-24T03:16:50.850Z,0
2016-09-24T03:17:23.166Z,0
2016-09-24T03:17:55.474Z,0
2016-09-24T03:18:27.808Z,0
2016-09-24T03:19:00.134Z,0
2016-09-24T03:19:32.448Z,0
2016-09-24T03:20:04.783Z,0
2016-09-24T03:20:37.110Z,0
2016-09-24T03:21:09.446Z,0
2016-09-24T03:21:41.775Z,0
2016-09-24T03:22:14.115Z,0
2016-09-24T03:22:46.441Z,0
2016-09-24T03:23:18.776Z,0
2016-09-24T03:23:51.102Z,0
2016-09-24T03:24:23.426Z,0
2016-09-24T03:24:55.766Z,0
2016-09-24T03:25:28.102Z,0
2016-09-24T03:26:00.422Z,0
2016-09-24T03:26:32.746Z,0
2016-09-24T03:27:05.086Z,0
2016-09-24T03:27:37.399Z,0
2016-09-24T03:28:09.731Z,0
2016-09-24T03:28:42.057Z,0
2016-09-24T03:29:14.391Z,0
2016-09-24T03:29:46.701Z,0
2016-09-24T03:30:19.015Z,0
2016-09-24T03:30:51.337Z,0
2016-09-24T03:31:23.663Z,0
2016-09-24T03:31:55.985Z,0
2016-09-24T03:32:28.314Z,0
2016-09-24T03:33:00.648Z,0
2016-09-24T03:33:32.965Z,0
2016-09-24T03:34:05.293Z,0
2016-09-24T03:34:37.613Z,0
2016-09-24T03:35:09.938Z,0
2016-09-24T03:35:42.269Z,0
2016-09-24T03:36:14.604Z,0
2016-09-24T03:36:46.947Z,0
2016-09-24T03:37:19.273Z,0
2016-09-24T03:37:51.599Z,0
2016-09-24T03:38:23.936Z,0
2016-09-24T03:38:56.261Z,0
2016-09-24T03:39:28.580Z,0
2016-09-24T03:40:00.909Z,0
2016-09-24T03:40:33.245Z,0
2016-09-24T03:41:05.563Z,0
2016-09-24T03:41:37.885Z,0
2016-09-24T03:42:10.197Z,0
2016-09-24T03:42:42.527Z,0
2016-09-24T03:43:14.843Z,0
2016-09-24T03:43:47.171Z,0
2016-09-24T03:44:19.493Z,0
2016-09-24T03:44:51.820Z,0
2016-09-24T03:45:24.146Z,0
2016-09-24T03:45:56.456Z,0
2016-09-24T03:46:28.759Z,0
2016-09-24T03:47:01.093Z,0
2016-09-24T03:47:33.416Z,0
2016-09-24T03:48:05.735Z,0
2016-09-24T03:48:38.062Z,0
2016-09-24T03:49:10.388Z,0
2016-09-24T03:49:42.723Z,0
2016-09-24T03:50:15.071Z,0
2016-09-24T03:50:47.407Z,0
2016-09-24T03:51:19.731Z,0
2016-09-24T03:51:52.044Z,0
2016-09-24T03:52:24.372Z,0
2016-09-24T03:52:56.709Z,0
2016-09-24T03:53:29.035Z,0
2016-09-24T03:54:01.360Z,0
2016-09-24T03:54:33.692Z,0
2016-09-24T03:55:06.024Z,0
2016-09-24T03:55:38.353Z,0
2016-09-24T03:56:10.660Z,0
2016-09-24T03:56:42.987Z,0
2016-09-24T03:57:15.314Z,0
2016-09-24T03:57:47.629Z,0
2016-09-24T03:58:19.966Z,0
2016-09-24T03:58:52.284Z,0
2016-09-24T03:59:24.629Z,0
2016-09-24T03:59:56.956Z,0
2016-09-24T04:00:29.288Z,0
2016-09-24T04:01:01.617Z,0
2016-09-24T04:01:33.953Z,0
2016-09-24T04:02:06.297Z,0
2016-09-24T04:02:38.610Z,0
2016-09-24T04:03:10.954Z,0
2016-09-24T04:03:43.277Z,0
2016-09-24T04:04:15.607Z,0
2016-09-24T04:04:47.944Z,0
2016-09-24T04:05:20.287Z,0
2016-09-24T04:05:52.600Z,0
2016-09-24T04:06:24.928Z,0
2016-09-24T04:06:57.264Z,0
2016-09-24T04:07:29.582Z,0
2016-09-24T04:08:01.912Z,0
2016-09-24T04:08:34.236Z,0
2016-09-24T04:09:06.562Z,0
2016-09-24T04:09:38.884Z,0
2016-09-24T04:10:11.223Z,0
2016-09-24T04:10:43.566Z,0
2016-09-24T04:11:15.869Z,0
2016-09-24T04:11:48.194Z,0
2016-09-24T04:12:20.529Z,0
2016-09-24T04:12:52.859Z,0
2016-09-24T04:13:25.178Z,0
2016-09-24T04:13:57.532Z,0
2016-09-24T04:14:29.865Z,0
2016-09-24T04:15:02.181Z,0
2016-09-24T04:15:34.547Z,0
2016-09-24T04:16:06.887Z,0
2016-09-24T04:16:39.215Z,0
2016-09-24T04:17:11.531Z,0
2016-09-24T04:17:43.861Z,0
2016-09-24T04:18:16.184Z,0
2016-09-24T04:18:48.510Z,0
2016-09-24T04:19:20.840Z,0
2016-09-24T04:19:53.173Z,0
2016-09-24T04:20:25.510Z,0
2016-09-24T04:20:57.833Z,0
2016-09-24T04:21:30.164Z,0
2016-09-24T04:22:02.476Z,0
2016-09-24T04:22:34.808Z,0
2016-09-24T04:23:07.126Z,0
2016-09-24T04:23:39.454Z,0
2016-09-24T04:24:11.771Z,0
2016-09-24T04:24:44.102Z,0
2016-09-24T04:25:16.419Z,0
2016-09-24T04:25:48.731Z,0
2016-09-24T04:26:21.055Z,0
2016-09-24T04:26:53.368Z,0
2016-09-24T04:27:25.692Z,0
2016-09-24T04:27:58.026Z,0
2016-09-24T04:28:30.354Z,0
2016-09-24T04:29:02.659Z,0
2016-09-24T04:29:34.976Z,0
2016-09-24T04:30:07.311Z,0
2016-09-24T04:30:39.650Z,0
2016-09-24T04:31:11.976Z,0
2016-09-24T04:31:44.309Z,0
2016-09-24T04:32:16.631Z,0
2016-09-24T04:32:48.945Z,0
2016-09-24T04:33:21.265Z,0
2016-09-24T04:33:53.590Z,0
2016-09-24T04:34:25.919Z,0
2016-09-24T04:34:58.246Z,0
2016-09-24T04:35:30.554Z,0
2016-09-24T04:36:02.868Z,0
2016-09-24T04:36:35.205Z,0
2016-09-24T04:37:07.529Z,0
2016-09-24T04:37:39.840Z,0
2016-09-24T04:38:12.151Z,0
2016-09-24T04:38:44.504Z,0
2016-09-24T04:39:16.820Z,0
2016-09-24T04:39:49.158Z,0
2016-09-24T04:40:21.475Z,0
2016-09-24T04:40:53.796Z,0
2016-09-24T04:41:26.113Z,0
2016-09-24T04:41:58.442Z,0
2016-09-24T04:42:30.761Z,0
2016-09-24T04:43:03.091Z,0
2016-09-24T04:43:35.428Z,0
2016-09-24T04:44:07.748Z,0
2016-09-24T04:44:40.064Z,0
2016-09-24T04:45:12.394Z,0
2016-09-24T04:45:44.716Z,0
2016-09-24T04:46:17.032Z,0
2016-09-24T04:46:49.366Z,0
2016-09-24T04:47:21.683Z,0
2016-09-24T04:47:54.003Z,0
2016-09-24T04:48:26.333Z,0
2016-09-24T04:48:58.652Z,0
2016-09-24T04:49:30.977Z,0
2016-09-24T04:50:03.283Z,0
2016-09-24T04:50:35.586Z,0
2016-09-24T04:51:07.903Z,0
2016-09-24T04:51:40.229Z,0
2016-09-24T04:52:12.547Z,0
2016-09-24T04:52:44.877Z,0
2016-09-24T04:53:17.213Z,0
2016-09-24T04:53:49.542Z,0
2016-09-24T04:54:21.868Z,0
2016-09-24T04:54:54.201Z,0
2016-09-24T04:55:26.537Z,0
2016-09-24T04:55:58.861Z,0
2016-09-24T04:56:31.179Z,0
2016-09-24T04:57:03.512Z,0
2016-09-24T04:57:35.834Z,0
2016-09-24T04:58:08.157Z,0
2016-09-24T04:58:40.475Z,0
2016-09-24T04:59:12.802Z,0
2016-09-24T04:59:45.122Z,0
2016-09-24T05:00:17.441Z,0
2016-09-24T05:00:49.764Z,0
2016-09-24T05:01:22.122Z,0
2016-09-24T05:01:54.456Z,0
2016-09-24T05:02:26.775Z,0
2016-09-24T05:02:59.130Z,0
2016-09-24T05:03:31.462Z,0
2016-09-24T05:04:03.794Z,0
2016-09-24T05:04:36.107Z,0
2016-09-24T05:05:08.436Z,0
2016-09-24T05:05:40.758Z,0
2016-09-24T05:06:13.082Z,0
2016-09-24T05:06:45.406Z,0
2016-09-24T05:07:17.729Z,0
2016-09-24T05:07:50.051Z,0
2016-09-24T05:08:22.358Z,0
2016-09-24T05:08:54.686Z,0
2016-09-24T05:09:27.004Z,0
2016-09-24T05:09:59.324Z,0
2016-09-24T05:10:31.647Z,0
2016-09-24T05:11:03.992Z,0
2016-09-24T05:11:36.315Z,0
2016-09-24T05:12:08.651Z,0
2016-09-24T05:12:40.979Z,0
2016-09-24T05:13:13.302Z,0
2016-09-24T05:13:45.616Z,0
2016-09-24T05:14:17.950Z,0
2016-09-24T05:14:50.278Z,0
2016-09-24T05:15:22.598Z,0
2016-09-24T05:15:54.929Z,0
2016-09-24T05:16:27.240Z,0
2016-09-24T05:16:59.572Z,0
2016-09-24T05:17:31.903Z,0
2016-09-24T05:18:04.235Z,0
2016-09-24T05:18:36.554Z,0
2016-09-24T05:19:08.871Z,0
2016-09-24T05:19:41.209Z,0
2016-09-24T05:20:13.529Z,0
2016-09-24T05:20:45.853Z,0
2016-09-24T05:21:18.179Z,0
2016-09-24T05:21:50.501Z,0
2016-09-24T05:22:22.827Z,0
2016-09-24T05:22:55.171Z,0
2016-09-24T05:23:27.496Z,0
2016-09-24T05:23:59.832Z,0
2016-09-24T05:24:32.154Z,0
2016-09-24T05:25:04.487Z,0
2016-09-24T05:25:36.814Z,0
2016-09-24T05:26:09.138Z,0
2016-09-24T05:26:41.470Z,0
2016-09-24T05:27:13.795Z,5
2016-09-24T05:27:46.131Z,5
2016-09-24T05:28:18.450Z,5
2016-09-24T05:28:50.774Z,5
2016-09-24T05:29:23.099Z,5
2016-09-24T05:29:55.417Z,5
2016-09-24T05:30:27.756Z,5
2016-09-24T05:31:00.092Z,5
2016-09-24T05:31:32.418Z,5
2016-09-24T05:32:04.753Z,5
2016-09-24T05:32:37.082Z,5
2016-09-24T05:33:09.415Z,5
2016-09-24T05:33:41.747Z,5
2016-09-24T05:34:14.043Z,5
2016-09-24T05:34:46.368Z,5
2016-09-24T05:35:18.692Z,5
2016-09-24T05:35:51.015Z,5
2016-09-24T05:36:23.342Z,5
2016-09-24T05:36:55.672Z,5
2016-09-24T05:37:28.008Z,5
2016-09-24T05:38:00.317Z,5
2016-09-24T05:38:32.649Z,5
2016-09-24T05:39:04.999Z,5
2016-09-24T05:39:37.323Z,5
2016-09-24T05:40:09.651Z,5
2016-09-24T05:40:41.961Z,5
2016-09-24T05:41:14.282Z,5
2016-09-24T05:41:46.612Z,5
2016-09-24T05:42:18.937Z,10
2016-09-24T05:42:51.269Z,10
2016-09-24T05:43:23.601Z,10
2016-09-24T05:43:55.915Z,10
2016-09-24T05:44:28.236Z,10
2016-09-24T05:45:00.568Z,10
2016-09-24T05:45:32.892Z,10
2016-09-24T05:46:05.222Z,10
2016-09-24T05:46:37.549Z,10
2016-09-24T05:47:09.869Z,10
2016-09-24T05:47:42.202Z,10
2016-09-24T05:48:14.521Z,10
2016-09-24T05:48:46.839Z,10
2016-09-24T05:49:19.176Z,10
2016-09-24T05:49:51.504Z,10
2016-09-24T05:50:23.845Z,15
2016-09-24T05:50:56.177Z,15
2016-09-24T05:51:28.509Z,15
2016-09-24T05:52:00.827Z,15
2016-09-24T05:52:33.165Z,15
2016-09-24T05:53:05.488Z,15
2016-09-24T05:53:37.817Z,15
2016-09-24T05:54:10.143Z,15
2016-09-24T05:54:42.457Z,15
2016-09-24T05:55:14.795Z,15
2016-09-24T05:55:47.114Z,15
2016-09-24T05:56:19.424Z,15
2016-09-24T05:56:51.741Z,15
2016-09-24T05:57:24.078Z,15
2016-09-24T05:57:56.402Z,15
2016-09-24T05:58:28.716Z,20
2016-09-24T05:59:01.022Z,20
2016-09-24T05:59:33.353Z,20
2016-09-24T06:00:05.683Z,20
2016-09-24T06:00:38.025Z,20
2016-09-24T06:01:10.356Z,20
2016-09-24T06:01:42.711Z,20
2016-09-24T06:02:15.030Z,20
2016-09-24T06:02:47.353Z,20
2016-09-24T06:03:19.679Z,20
2016-09-24T06:03:52.005Z,25
2016-09-24T06:04:24.332Z,25
2016-09-24T06:04:56.653Z,25
2016-09-24T06:05:28.966Z,25
2016-09-24T06:06:01.271Z,25
2016-09-24T06:06:33.600Z,20
2016-09-24T06:07:05.922Z,25
2016-09-24T06:07:38.247Z,25
2016-09-24T06:08:10.552Z,25
2016-09-24T06:08:42.876Z,25
2016-09-24T06:09:15.217Z,25
2016-09-24T06:09:47.547Z,25
2016-09-24T06:10:19.875Z,25
2016-09-24T06:10:52.209Z,25
2016-09-24T06:11:24.527Z,25
2016-09-24T06:11:56.846Z,25
2016-09-24T06:12:29.179Z,25
2016-09-24T06:13:01.510Z,30
2016-09-24T06:13:33.834Z,30
2016-09-24T06:14:06.158Z,30
2016-09-24T06:14:38.484Z,30
2016-09-24T06:15:10.808Z,40
2016-09-24T06:15:43.132Z,45
2016-09-24T06:16:15.459Z,45
2016-09-24T06:16:47.784Z,45
2016-09-24T06:17:20.098Z,50
2016-09-24T06:17:52.406Z,50
2016-09-24T06:18:24.722Z,50
2016-09-24T06:18:57.064Z,50
2016-09-24T06:19:29.388Z,50
2016-09-24T06:20:01.723Z,50
2016-09-24T06:20:34.046Z,50
2016-09-24T06:21:06.393Z,50
2016-09-24T06:21:38.710Z,55
2016-09-24T06:22:11.031Z,55
2016-09-24T06:22:43.365Z,55
2016-09-24T06:23:15.698Z,55
2016-09-24T06:23:47.998Z,60
2016-09-24T06:24:20.336Z,60
2016-09-24T06:24:52.655Z,60
2016-09-24T06:25:24.980Z,60
2016-09-24T06:25:57.304Z,60
2016-09-24T06:26:29.652Z,60
2016-09-24T06:27:01.973Z,60
2016-09-24T06:27:34.291Z,60
2016-09-24T06:28:06.617Z,60
2016-09-24T06:28:38.923Z,60
2016-09-24T06:29:11.239Z,65
2016-09-24T06:29:43.570Z,65
2016-09-24T06:30:15.890Z,65
2016-09-24T06:30:48.209Z,65
2016-09-24T06:31:20.547Z,65
2016-09-24T06:31:52.876Z,65
2016-09-24T06:32:25.212Z,65
2016-09-24T06:32:57.543Z,65
2016-09-24T06:33:29.877Z,70
2016-09-24T06:34:02.213Z,70
2016-09-24T06:34:34.571Z,70
2016-09-24T06:35:06.909Z,70
2016-09-24T06:35:39.256Z,65
2016-09-24T06:36:11.647Z,65
2016-09-24T06:36:43.964Z,65
2016-09-24T06:37:16.365Z,65
2016-09-24T06:37:48.697Z,65
2016-09-24T06:38:21.054Z,70
2016-09-24T06:38:53.367Z,70
2016-09-24T06:39:25.682Z,70
2016-09-24T06:39:57.992Z,70
2016-09-24T06:40:30.334Z,70
2016-09-24T06:41:02.654Z,70
2016-09-24T06:41:34.983Z,70
2016-09-24T06:42:26.852Z,75
2016-09-24T06:42:59.182Z,75
2016-09-24T06:43:31.517Z,75
2016-09-24T06:44:03.843Z,75
2016-09-24T06:44:36.174Z,75
2016-09-24T06:45:08.533Z,75
2016-09-24T06:45:40.841Z,75
2016-09-24T06:46:13.186Z,75
2016-09-24T06:46:45.524Z,70
2016-09-24T06:47:17.860Z,70
2016-09-24T06:47:50.196Z,70
2016-09-24T06:48:22.519Z,70
2016-09-24T06:48:54.898Z,70
2016-09-24T06:49:27.243Z,70
2016-09-24T06:49:59.568Z,75
2016-09-24T06:50:31.893Z,75
2016-09-24T06:51:04.220Z,75
2016-09-24T06:51:36.542Z,75
2016-09-24T06:52:08.868Z,75
2016-09-24T06:52:41.199Z,75
2016-09-24T06:53:13.539Z,75
2016-09-24T06:53:45.863Z,75
2016-09-24T06:54:18.212Z,75
2016-09-24T06:54:50.531Z,75
2016-09-24T06:55:22.864Z,75
2016-09-24T06:55:55.195Z,75
2016-09-24T06:56:27.530Z,75
2016-09-24T06:56:59.849Z,75
2016-09-24T06:57:32.174Z,75
2016-09-24T06:58:04.512Z,75
2016-09-24T06:58:36.836Z,70
2016-09-24T06:59:09.159Z,70
2016-09-24T06:59:41.492Z,70
2016-09-24T07:00:13.824Z,65
2016-09-24T07:00:46.137Z,70
2016-09-24T07:01:18.467Z,70
2016-09-24T07:01:50.796Z,70
2016-09-24T07:02:23.135Z,70
2016-09-24T07:02:55.552Z,70
2016-09-24T07:03:27.895Z,75
2016-09-24T07:04:00.227Z,80
2016-09-24T07:04:32.561Z,80
2016-09-24T07:05:04.899Z,85
2016-09-24T07:05:37.235Z,85
2016-09-24T07:06:09.560Z,85
2016-09-24T07:06:41.898Z,85
2016-09-24T07:07:14.237Z,85
2016-09-24T07:07:46.566Z,85
2016-09-24T07:08:18.897Z,85
2016-09-24T07:08:51.213Z,85
2016-09-24T07:09:23.547Z,85
2016-09-24T07:09:55.869Z,85
2016-09-24T07:10:28.211Z,85
2016-09-24T07:11:00.543Z,85
2016-09-24T07:11:32.888Z,85
2016-09-24T07:12:05.213Z,85
2016-09-24T07:12:37.550Z,85
2016-09-24T07:13:09.888Z,85
2016-09-24T07:13:42.222Z,85
2016-09-24T07:14:14.549Z,85
2016-09-24T07:14:46.889Z,85
2016-09-24T07:15:19.212Z,85
2016-09-24T07:15:51.536Z,85
2016-09-24T07:16:23.871Z,85
2016-09-24T07:16:56.194Z,85
2016-09-24T07:17:28.532Z,85
2016-09-24T07:18:00.850Z,85
2016-09-24T07:18:33.181Z,85
2016-09-24T07:19:05.547Z,85
2016-09-24T07:19:38.018Z,85
2016-09-24T07:20:10.326Z,80
2016-09-24T07:20:42.655Z,85
2016-09-24T07:21:14.980Z,85
2016-09-24T07:21:47.309Z,85
2016-09-24T07:22:19.652Z,85
2016-09-24T07:22:51.971Z,80
2016-09-24T07:23:24.286Z,85
2016-09-24T07:23:56.615Z,85
2016-09-24T07:24:28.939Z,85
2016-09-24T07:25:01.264Z,80
2016-09-24T07:25:33.593Z,80
2016-09-24T07:26:05.918Z,80
2016-09-24T07:26:38.244Z,80
2016-09-24T07:27:10.573Z,85
2016-09-24T07:27:42.897Z,90
2016-09-24T07:28:15.216Z,90
2016-09-24T07:28:47.525Z,95
2016-09-24T07:29:19.844Z,95
2016-09-24T07:29:52.166Z,95
2016-09-24T07:30:24.486Z,95
2016-09-24T07:30:56.826Z,95
2016-09-24T07:31:29.151Z,95
2016-09-24T07:32:01.475Z,95
2016-09-24T07:32:33.799Z,95
2016-09-24T07:33:06.128Z,95
2016-09-24T07:33:38.437Z,95
2016-09-24T07:34:10.756Z,95
2016-09-24T07:34:43.079Z,95
2016-09-24T07:35:15.416Z,95
2016-09-24T07:35:47.786Z,95
2016-09-24T07:36:20.123Z,90
2016-09-24T07:36:52.470Z,95
2016-09-24T07:37:24.801Z,95
2016-09-24T07:37:57.138Z,95
2016-09-24T07:38:29.474Z,95
2016-09-24T07:39:01.793Z,90
2016-09-24T07:39:34.122Z,85
2016-09-24T07:40:06.452Z,90
2016-09-24T07:40:38.778Z,90
2016-09-24T07:41:11.114Z,90
2016-09-24T07:41:43.449Z,85
2016-09-24T07:42:15.780Z,85
2016-09-24T07:42:48.113Z,85
2016-09-24T07:43:20.437Z,85
2016-09-24T07:43:52.758Z,90
2016-09-24T07:44:25.107Z,90
2016-09-24T07:44:57.459Z,90
2016-09-24T07:45:29.804Z,90
2016-09-24T07:46:02.159Z,90
2016-09-24T07:46:34.482Z,90
2016-09-24T07:47:06.815Z,85
2016-09-24T07:47:39.165Z,90
2016-09-24T07:48:11.505Z,90
2016-09-24T07:48:43.824Z,90
2016-09-24T07:49:16.163Z,90
2016-09-24T07:49:48.498Z,90
2016-09-24T07:50:20.828Z,90
2016-09-24T07:50:53.154Z,90
2016-09-24T07:51:25.481Z,90
2016-09-24T07:51:57.817Z,90
2016-09-24T07:52:30.159Z,85
2016-09-24T07:53:02.479Z,85
2016-09-24T07:53:34.804Z,85